Latest Coastal Weather Observations for Yarram Airport

IDV60701

Issued at 9:21 am EDT Friday 30 January 2015 (issued every 10 minutes, with the page automatically refreshed every 10 minutes)

About coastal observations | Map of coastal stations | Coastal observations for VIC | Marine services | Other Formats
Station Details ID: 085151 Name: YARRAM AIRPORT Lat: -38.56 Lon: 146.75 Height: 17.9 m
Data from the previous 72 hours. | See also: Recent months at Yarram Airport
Date/Time
EDT
Temp

°C
Wind Pressure Rain
since 9am
mm
Weather Cloud Vis
km
Sea
Height
m
Swell
Dir
 
Speed
knots
Gust
knots
hPa Trend Height
m
Period
s
Dir
30/09:00am 15.7 SSE 12 16 1015.8 - 4.4 - - - - - - -
30/08:30am 15.5 SSE 12 16 1015.8 - 4.4 - - - - - - -
30/08:00am 15.3 SSE 12 16 1015.7 - 4.4 - - - - - - -
30/07:30am 15.2 S 11 14 1015.5 - 4.4 - - - - - - -
30/07:00am 14.3 S 7 9 1015.5 - 4.4 - - - - - - -
30/06:30am 13.3 SSW 7 8 1015.4 - 4.4 - - - - - - -
30/06:00am 13.1 S 7 8 1015.4 - 4.4 - - - - - - -
30/05:30am 13.6 SSE 8 10 1015.5 - 4.4 - - - - - - -
30/05:00am 13.1 SW 4 7 1015.6 - 4.4 - - - - - - -
30/04:30am 12.9 E 3 4 1015.7 - 4.4 - - - - - - -
30/04:00am 13.1 SE 6 8 1016.0 - 4.4 - - - - - - -
30/03:35am 14.2 SSE 11 23 1016.2 - 4.4 - - - - - - -
30/03:30am 14.8 SSE 8 9 1016.1 - 4.4 - - - - - - -
30/03:00am 14.9 SSE 9 11 1016.3 - 4.4 - - - - - - -
30/02:30am 15.0 SE 9 13 1016.5 - 4.4 - - - - - - -
30/02:00am 14.4 SSE 6 7 1016.9 - 4.4 - - - - - - -
30/01:30am 12.7 W 4 4 1017.2 - 4.4 - - - - - - -
30/01:00am 12.6 SE 1 3 1017.4 - 4.4 - - - - - - -
30/12:30am 13.4 ESE 5 6 1017.5 - 4.4 - - - - - - -
30/12:00am 14.5 SE 5 7 1018.0 - 4.4 - - - - - - -
 
Date/Time
EDT
Temp

°C
Wind Pressure Rain
since 9am
mm
Weather Cloud Vis
km
Sea
Height
m
Swell
Dir
 
Speed
knots
Gust
knots
hPa Trend Height
m
Period
s
Dir
29/11:30pm 15.1 SE 6 7 1018.4 - 4.4 - - - - - - -
29/11:00pm 15.4 SE 8 11 1018.8 - 4.4 - - - - - - -
29/10:30pm 15.3 SE 9 12 1018.8 - 4.4 - - - - - - -
29/10:00pm 14.4 SE 9 11 1018.8 - 4.4 - - - - - - -
29/09:30pm 12.4 WSW 4 6 1018.7 - 4.4 - - - - - - -
29/09:00pm 13.1 WNW 4 5 1018.6 - 4.4 - - - - - - -
29/08:30pm 14.0 NNE 1 3 1018.6 - 4.4 - - - - - - -
29/08:00pm 14.7 NE 3 5 1018.7 - 4.4 - - - - - - -
29/07:30pm 15.2 E 9 13 1018.7 - 4.4 - - - - - - -
29/07:00pm 17.1 SSE 10 16 1018.5 - 4.4 - - - - - - -
29/06:30pm 15.8 ESE 8 11 1018.6 - 4.4 - - - - - - -
29/06:00pm 16.5 S 14 17 1018.6 - 4.4 - - - - - - -
29/05:30pm 17.7 SSE 16 20 1018.8 - 4.4 - - - - - - -
29/05:00pm 17.3 SE 16 20 1019.0 - 4.4 - - - - - - -
29/04:30pm 16.6 SSE 20 26 1019.2 - 4.4 - - - - - - -
29/04:00pm 17.5 SSE 14 19 1019.1 - 4.4 - - - - - - -
29/03:30pm 16.1 SSE 16 22 1019.3 - 4.4 - - - - - - -
29/03:29pm 16.3 SSE 16 22 1019.4 - 4.4 - - - - - - -
29/03:00pm 17.1 SSE 19 27 1019.4 - 3.0 - - - - - - -
29/02:30pm 16.6 S 17 23 1019.5 - 3.0 - - - - - - -
29/02:00pm 18.2 SSE 19 25 1019.6 - 3.0 - - - - - - -
29/01:30pm 17.5 SSE 19 23 1019.8 - 3.0 - - - - - - -
29/01:00pm 15.5 SSE 14 22 1020.1 - 3.0 - - - - - - -
29/12:56pm 15.0 SSE 18 28 1020.2 - 3.0 - - - - - - -
29/12:30pm 17.1 SSE 22 28 1020.2 - 1.4 - - - - - - -
29/12:00pm 16.7 S 14 19 1020.3 - 1.4 Rain - - - - - -
29/11:30am 16.1 SSE 17 23 1020.5 - 0.0 - - - - - - -
29/11:19am 18.4 SSE 21 27 1020.4 - 0.0 - - - - - - -
29/11:00am 17.8 S 17 24 1020.5 - 0.0 - - - - - - -
29/10:30am 18.4 SSE 17 24 1020.4 - 0.0 - - - - - - -
29/10:00am 18.7 SSE 18 22 1020.5 - 0.0 - - - - - - -
29/09:30am 17.5 SSE 17 21 1020.6 - 0.0 - - - - - - -
29/09:00am 18.0 SSE 17 22 1020.5 - 0.0 - - - - - - -
29/08:30am 16.1 SSE 14 19 1020.4 - 0.0 - - - - - - -
29/08:00am 16.0 SSE 13 18 1020.3 - 0.0 - - - - - - -
29/07:30am 15.7 SSE 13 16 1020.1 - 0.0 - - - - - - -
29/07:18am 15.5 SSE 14 19 1020.0 - 0.0 - - - - - - -
29/07:00am 14.0 SE 6 9 1019.8 - 0.0 - - - - - - -
29/06:30am 13.0 SE 8 10 1019.7 - 0.0 - - - - - - -
29/06:00am 13.9 SE 10 13 1019.5 - 0.0 - - - - - - -
29/05:30am 13.7 SE 9 11 1019.4 - 0.0 - - - - - - -
29/05:00am 13.6 SE 8 11 1019.4 - 0.0 - - - - - - -
29/04:30am 13.3 SE 7 9 1019.3 - 0.0 - - - - - - -
29/04:00am 13.4 SE 9 11 1019.4 - 0.0 - - - - - - -
29/03:30am 13.4 SE 9 12 1019.7 - 0.0 - - - - - - -
29/03:00am 13.4 SE 9 11 1019.9 - 0.0 - - - - - - -
29/02:30am 13.8 SE 10 12 1020.1 - 0.0 - - - - - - -
29/02:00am 14.1 SE 11 15 1020.2 - 0.0 - - - - - - -
29/01:30am 14.2 SE 11 14 1020.4 - 0.0 - - - - - - -
29/01:00am 14.4 ESE 11 15 1020.5 - 0.0 - - - - - - -
29/12:30am 15.1 E 9 13 1020.7 - 0.0 - - - - - - -
29/12:00am 15.7 ESE 10 13 1020.8 - 0.0 - - - - - - -
 
Date/Time
EDT
Temp

°C
Wind Pressure Rain
since 9am
mm
Weather Cloud Vis
km
Sea
Height
m
Swell
Dir
 
Speed
knots
Gust
knots
hPa Trend Height
m
Period
s
Dir
28/11:30pm 15.2 ESE 9 15 1021.0 - 0.0 - - - - - - -
28/11:00pm 15.2 ESE 8 14 1021.2 - 0.0 - - - - - - -
28/10:30pm 14.5 E 7 10 1021.2 - 0.0 - - - - - - -
28/10:00pm 14.8 ESE 9 12 1021.3 - 0.0 - - - - - - -
28/09:30pm 14.9 ESE 8 11 1021.3 - 0.0 - - - - - - -
28/09:00pm 15.3 ESE 9 13 1021.1 - 0.0 - - - - - - -
28/08:30pm 15.8 ESE 9 13 1020.8 - 0.0 - - - - - - -
28/08:00pm 16.9 ESE 12 17 1020.7 - 0.0 - - - - - - -
28/07:30pm 17.0 ESE 11 16 1020.5 - 0.0 - - - - - - -
28/07:00pm 17.9 ESE 13 19 1020.4 - 0.0 - - - - - - -
28/06:30pm 17.6 ESE 11 17 1020.3 - 0.0 - - - - - - -
28/06:00pm 18.6 ESE 12 19 1020.3 - 0.0 - - - - - - -
28/05:30pm 18.5 ESE 13 22 1020.2 - 0.0 - - - - - - -
28/05:00pm 20.2 ESE 14 19 1020.3 - 0.0 - - - - - - -
28/04:30pm 19.9 ESE 14 18 1020.1 - 0.0 - - - - - - -
28/04:00pm 20.7 ESE 14 23 1020.2 - 0.0 - - - - - - -
28/03:30pm 20.1 SE 15 20 1020.2 - 0.0 - - - - - - -
28/03:00pm 20.9 ESE 13 19 1020.3 - 0.0 - - - - - - -
28/02:30pm 19.8 SE 17 22 1020.4 - 0.0 - - - - - - -
28/02:00pm 19.7 SE 17 22 1020.4 - 0.0 - - - - - - -
28/01:30pm 20.9 SE 18 25 1020.4 - 0.0 - - - - - - -
28/01:00pm 19.8 ESE 16 22 1020.3 - 0.0 - - - - - - -
28/12:30pm 20.8 ESE 15 27 1020.2 - 0.0 - - - - - - -
28/12:28pm 21.4 ESE 15 27 1020.2 - 0.0 - - - - - - -
28/12:00pm 19.7 ESE 16 21 1020.2 - 0.0 - - - - - - -
28/11:30am 20.3 E 13 20 1020.2 - 0.0 - - - - - - -
28/11:00am 20.3 ESE 14 20 1020.1 - 0.0 - - - - - - -
28/10:30am 19.4 ESE 17 24 1020.0 - 0.0 - - - - - - -
28/10:00am 19.9 ESE 18 25 1019.9 - 0.0 - - - - - - -
28/09:30am 18.6 ESE 15 21 1019.8 - 0.0 - - - - - - -
28/09:00am 19.0 ESE 15 21 1019.6 - 0.0 - - - - - - -
28/08:30am 18.1 ESE 11 16 1019.4 - 0.0 - - - - - - -
28/08:00am 13.6 NW 1 3 1019.2 - 0.0 - - - - - - -
28/07:30am 12.8 W 1 4 1018.9 - 0.0 - - - - - - -
28/07:00am 11.6 WNW 3 4 1018.6 - 0.0 - - - - - - -
28/06:30am 11.1 WNW 4 6 1018.3 - 0.0 - - - - - - -
28/06:00am 10.6 NW 5 6 1018.2 - 0.0 - - - - - - -
28/05:30am 9.8 WSW 4 5 1018.0 - 0.0 - - - - - - -
28/05:00am 9.6 CALM 0 0 1017.8 - 0.0 - - - - - - -
28/04:30am 9.4 CALM 0 0 1017.6 - 0.0 - - - - - - -
28/04:00am 8.1 CALM 0 0 1017.7 - 0.0 - - - - - - -
28/03:30am 7.6 NW 4 5 1017.7 - 0.0 - - - - - - -
28/03:00am 8.4 WNW 5 6 1017.8 - 0.0 - - - - - - -
28/02:30am 9.5 W 3 5 1017.9 - 0.0 - - - - - - -
28/02:00am 8.9 WSW 2 4 1018.1 - 0.0 - - - - - - -
28/01:30am 8.1 CALM 0 2 1018.3 - 0.0 - - - - - - -
28/01:00am 6.7 N 5 5 1018.4 - 0.0 - - - - - - -
28/12:30am 8.4 NW 4 5 1018.3 - 0.0 - - - - - - -
28/12:00am 8.2 NNW 4 4 1018.5 - 0.0 - - - - - - -
 
Date/Time
EDT
Temp

°C
Wind Pressure Rain
since 9am
mm
Weather Cloud Vis
km
Sea
Height
m
Swell
Dir
 
Speed
knots
Gust
knots
hPa Trend Height
m
Period
s
Dir
27/11:30pm 7.8 NNW 4 5 1018.5 - 0.0 - - - - - - -
27/11:00pm 8.9 N 4 5 1018.6 - 0.0 - - - - - - -
27/10:30pm 9.8 N 3 4 1018.6 - 0.0 - - - - - - -
27/10:00pm 11.4 N 3 4 1018.4 - 0.0 - - - - - - -
27/09:30pm 12.6 E 3 4 1018.1 - 0.0 - - - - - - -
27/09:00pm 13.8 SE 3 3 1017.9 - 0.0 - - - - - - -
27/08:30pm 15.1 SE 5 6 1017.7 - 0.0 - - - - - - -
27/08:00pm 15.4 SE 4 5 1017.5 - 0.0 - - - - - - -
27/07:30pm 16.2 SSE 5 7 1017.2 - 0.0 - - - - - - -
27/07:00pm 16.4 SSE 6 8 1017.0 - 0.0 - - - - - - -
27/06:30pm 16.8 S 6 8 1016.9 - 0.0 - - - - - - -
27/06:00pm 16.5 SSE 7 10 1016.9 - 0.0 - - - - - - -
27/05:30pm 16.5 SSE 9 13 1017.1 - 0.0 - - - - - - -
27/05:00pm 17.0 SSE 9 14 1017.0 - 0.0 - - - - - - -
27/04:30pm 17.0 SSE 10 13 1017.1 - 0.0 - - - - - - -
27/04:00pm 17.6 S 8 11 1017.1 - 0.0 - - - - - - -
27/03:30pm 17.4 S 8 10 1017.2 - 0.0 - - - - - - -
27/03:00pm 17.1 SSE 7 11 1017.3 - 0.0 - - - - - - -
27/02:30pm 17.3 SSE 7 11 1017.3 - 0.0 - - - - - - -
27/02:00pm 16.8 SSE 8 13 1017.5 - 0.0 - - - - - - -
27/01:30pm 16.7 SSE 7 11 1017.5 - 0.0 - - - - - - -
27/01:00pm 16.6 SSE 8 11 1017.7 - 0.0 - - - - - - -
27/12:30pm 16.4 SSE 8 11 1017.7 - 0.0 - - - - - - -
27/12:00pm 16.5 S 7 11 1017.8 - 0.0 - - - - - - -
27/11:30am 16.6 S 7 10 1017.8 - 0.0 - - - - - - -
27/11:00am 16.9 SSW 6 9 1017.7 - 0.0 - - - - - - -
27/10:30am 16.9 SW 5 7 1017.7 - 0.0 - - - - - - -
27/10:00am 16.3 SW 6 8 1017.7 - 0.0 - - - - - - -
27/09:30am 15.3 W 6 8 1017.7 - 0.0 - - - - - - -

Other Formats:

Comma delimited format used in spreadsheet applications
http://www.bom.gov.au/fwo/IDV60701/IDV60701.95890.axf

JavaScript Object Notation format (JSON) in row-major order
http://www.bom.gov.au/fwo/IDV60701/IDV60701.95890.json